Time;durP1;ratioP1;P1;durP2;ratioP2;P2;SDS_P1;SDS_P2;PMS_P1;PMS_P2;Temp;Humidity;BMP_temperature;BMP_pressure;BME280_temperature;BME280_humidity;BME280_pressure;Samples;Min_cycle;Max_cycle;Signal;HPM_P1;HPM_P2
2022/08/21 00:02:27;;;;;;;1.90;1.30;;;22.50;99.90;;;;;;5116232;28;20023;-75
2022/08/21 00:04:54;;;;;;;3.08;1.27;;;22.50;99.90;;;;;;5118334;28;20050;-75
2022/08/21 00:07:20;;;;;;;3.85;1.25;;;22.50;99.90;;;;;;5114295;28;20031;-75
2022/08/21 00:09:47;;;;;;;3.40;1.40;;;22.50;99.90;;;;;;5118540;28;20024;-75
2022/08/21 00:12:13;;;;;;;2.42;1.27;;;22.40;99.90;;;;;;5118455;28;20027;-75
2022/08/21 00:14:39;;;;;;;1.80;1.15;;;22.40;99.90;;;;;;5109501;28;20095;-75
2022/08/21 00:17:06;;;;;;;2.30;1.20;;;22.40;99.90;;;;;;5113505;28;20081;-75
2022/08/21 00:19:32;;;;;;;2.72;1.30;;;22.40;99.90;;;;;;5112219;28;20388;-75
2022/08/21 00:21:58;;;;;;;1.20;1.10;;;22.40;99.90;;;;;;5116137;28;20016;-75
2022/08/21 00:24:25;;;;;;;1.92;1.08;;;22.40;99.90;;;;;;5116342;28;20026;-75
2022/08/21 00:26:51;;;;;;;3.93;1.60;;;22.30;99.90;;;;;;5064527;28;1490725;-75
2022/08/21 00:29:17;;;;;;;1.60;1.30;;;22.30;99.90;;;;;;5114888;28;20023;-75
2022/08/21 00:31:43;;;;;;;1.98;1.38;;;22.30;99.90;;;;;;5111210;28;20027;-75
2022/08/21 00:34:10;;;;;;;3.15;1.10;;;22.20;99.90;;;;;;5118689;28;20031;-75
2022/08/21 00:36:36;;;;;;;1.83;1.35;;;22.20;99.90;;;;;;5117456;28;20031;-75
2022/08/21 00:39:04;;;;;;;2.58;1.33;;;22.20;99.90;;;;;;5117175;28;20024;-75
2022/08/21 00:41:31;;;;;;;1.63;1.10;;;22.20;99.90;;;;;;5118840;28;20106;-75
2022/08/21 00:43:57;;;;;;;1.75;1.10;;;22.20;99.90;;;;;;5118064;28;20065;-75
2022/08/21 00:46:23;;;;;;;2.28;1.40;;;22.20;99.90;;;;;;5118436;28;20499;-75
2022/08/21 00:48:49;;;;;;;3.30;1.30;;;22.20;99.90;;;;;;5116901;28;20031;-75
2022/08/21 00:51:22;;;;;;;2.88;1.33;;;22.10;99.90;;;;;;5117174;28;20567;-75
2022/08/21 00:53:53;;;;;;;2.13;1.20;;;22.10;99.90;;;;;;5117546;28;20043;-75
2022/08/21 00:56:20;;;;;;;6.18;1.42;;;22.00;99.90;;;;;;5118481;28;20019;-75
2022/08/21 00:58:48;;;;;;;3.60;1.27;;;22.00;99.90;;;;;;5118395;28;20027;-75
2022/08/21 01:01:14;;;;;;;1.92;1.30;;;22.00;99.90;;;;;;5116983;28;20057;-75
2022/08/21 01:03:40;;;;;;;1.75;1.40;;;21.90;99.90;;;;;;5116951;28;20507;-75
2022/08/21 01:06:08;;;;;;;2.10;1.48;;;21.90;99.90;;;;;;5116877;28;20030;-75
2022/08/21 01:08:35;;;;;;;3.65;1.40;;;21.80;99.90;;;;;;5118299;28;20104;-75
2022/08/21 01:11:02;;;;;;;2.17;1.33;;;21.80;99.90;;;;;;5117228;28;20027;-75
2022/08/21 01:13:31;;;;;;;2.40;1.35;;;21.70;99.90;;;;;;5112892;28;20020;-75
2022/08/21 01:15:59;;;;;;;1.70;1.20;;;21.70;99.90;;;;;;5116661;28;20038;-75
2022/08/21 01:18:27;;;;;;;3.60;1.60;;;21.60;99.90;;;;;;5116280;28;20019;-75
2022/08/21 01:21:06;;;;;;;1.73;1.40;;;21.60;99.90;;;;;;5117966;28;20028;-75
2022/08/21 01:23:33;;;;;;;3.33;1.40;;;21.60;99.90;;;;;;5117728;28;20019;-75
2022/08/21 01:25:59;;;;;;;2.25;1.75;;;21.50;99.90;;;;;;5116554;28;20062;-75
2022/08/21 01:28:30;;;;;;;2.90;1.92;;;21.50;99.90;;;;;;5117756;28;20094;-75
2022/08/21 01:30:56;;;;;;;4.85;1.85;;;21.40;99.90;;;;;;5116206;28;20073;-76
2022/08/21 01:33:24;;;;;;;1.67;1.35;;;21.30;99.90;;;;;;5115582;28;20023;-75
2022/08/21 01:35:50;;;;;;;3.60;1.42;;;21.30;99.90;;;;;;5116847;28;20031;-75
2022/08/21 01:38:16;;;;;;;3.03;1.85;;;21.30;99.90;;;;;;5116306;28;20038;-75
2022/08/21 01:40:42;;;;;;;2.00;1.60;;;21.30;99.90;;;;;;5116280;28;20024;-75
2022/08/21 01:43:07;;;;;;;2.08;1.70;;;21.30;99.90;;;;;;5116414;28;20410;-75
2022/08/21 01:45:33;;;;;;;3.60;1.67;;;21.20;99.90;;;;;;5116444;28;20016;-75
2022/08/21 01:47:59;;;;;;;2.33;1.83;;;21.20;99.90;;;;;;5113928;28;20094;-75
2022/08/21 01:50:25;;;;;;;2.45;1.50;;;21.10;99.90;;;;;;5098711;28;20047;-75
2022/08/21 01:52:51;;;;;;;2.50;1.70;;;21.10;99.90;;;;;;5104897;28;20429;-75
2022/08/21 01:55:19;;;;;;;4.22;1.70;;;21.10;99.90;;;;;;5117369;28;20068;-75
2022/08/21 01:57:46;;;;;;;4.85;1.63;;;21.00;99.90;;;;;;5110836;28;20034;-75
2022/08/21 02:00:16;;;;;;;2.42;1.77;;;21.00;99.90;;;;;;5117320;28;20020;-75
2022/08/21 02:02:42;;;;;;;3.92;1.60;;;21.00;99.90;;;;;;5108716;28;20104;-75
2022/08/21 02:05:10;;;;;;;2.35;1.65;;;21.00;99.90;;;;;;5113561;28;20437;-75
2022/08/21 02:07:46;;;;;;;1.77;1.50;;;21.00;99.90;;;;;;5115921;28;20019;-75
2022/08/21 02:10:16;;;;;;;2.38;1.30;;;21.00;99.90;;;;;;5117225;28;20012;-75
2022/08/21 02:12:42;;;;;;;2.00;1.40;;;21.00;99.90;;;;;;5116391;28;20047;-75
2022/08/21 02:15:09;;;;;;;1.80;1.48;;;21.00;99.90;;;;;;5117193;28;20391;-75
2022/08/21 02:18:02;;;;;;;3.17;1.85;;;21.00;99.90;;;;;;5108899;28;20091;-75
2022/08/21 02:20:37;;;;;;;2.03;1.45;;;20.90;99.90;;;;;;5094790;28;20396;-76
2022/08/21 02:23:05;;;;;;;2.40;1.70;;;20.90;99.90;;;;;;5097693;28;20035;-75
2022/08/21 02:25:31;;;;;;;1.80;1.33;;;20.90;99.90;;;;;;5114907;28;20048;-75
2022/08/21 02:27:59;;;;;;;2.83;1.33;;;20.90;99.90;;;;;;5112470;28;20031;-75
2022/08/21 02:30:30;;;;;;;2.85;1.50;;;20.80;99.90;;;;;;5115795;28;20019;-75
2022/08/21 02:32:57;;;;;;;2.13;1.60;;;20.90;99.90;;;;;;5117022;28;20043;-75
2022/08/21 02:35:24;;;;;;;2.08;1.63;;;20.80;99.90;;;;;;5117028;28;20024;-75
2022/08/21 02:37:54;;;;;;;3.78;1.48;;;20.80;99.90;;;;;;5117295;28;20023;-75
2022/08/21 02:40:24;;;;;;;2.92;1.58;;;20.80;99.90;;;;;;5116096;28;20024;-75
2022/08/21 02:42:51;;;;;;;2.67;1.67;;;20.80;99.90;;;;;;5115877;28;20015;-75
2022/08/21 02:45:18;;;;;;;2.58;1.60;;;20.70;99.90;;;;;;5115788;28;20031;-75
2022/08/21 02:47:54;;;;;;;5.75;1.70;;;20.70;99.90;;;;;;5116593;28;20012;-75
2022/08/21 02:50:26;;;;;;;5.68;1.50;;;20.80;99.90;;;;;;5098803;28;20445;-75
2022/08/21 02:52:53;;;;;;;3.28;1.60;;;20.70;99.90;;;;;;5116947;28;20053;-75
2022/08/21 02:55:20;;;;;;;2.53;1.75;;;20.70;99.90;;;;;;5117075;28;20028;-75
2022/08/21 02:57:47;;;;;;;4.88;1.70;;;20.80;99.90;;;;;;5113195;28;20104;-75
2022/08/21 03:00:14;;;;;;;2.10;1.45;;;20.70;99.90;;;;;;5117088;28;20019;-75
2022/08/21 03:02:40;;;;;;;2.63;1.60;;;20.70;99.90;;;;;;5116355;28;20035;-76
2022/08/21 03:05:09;;;;;;;1.95;1.60;;;20.70;99.90;;;;;;5109585;28;20016;-75
2022/08/21 03:07:36;;;;;;;2.20;1.88;;;20.70;99.90;;;;;;5117565;28;20084;-75
2022/08/21 03:10:04;;;;;;;3.05;1.60;;;20.70;99.90;;;;;;5119317;28;20012;-76
2022/08/21 03:12:30;;;;;;;6.30;1.77;;;20.70;99.90;;;;;;5120931;28;20506;-75
2022/08/21 03:14:57;;;;;;;2.10;1.50;;;20.70;99.90;;;;;;5119126;28;20023;-75
2022/08/21 03:17:24;;;;;;;3.13;1.50;;;20.70;99.90;;;;;;5112939;28;20020;-74
2022/08/21 03:19:50;;;;;;;2.00;1.55;;;20.80;99.90;;;;;;5116337;28;20106;-75
2022/08/21 03:22:17;;;;;;;2.15;1.60;;;20.80;99.90;;;;;;5099135;28;20024;-75
2022/08/21 03:24:43;;;;;;;2.60;1.60;;;20.80;99.90;;;;;;5114181;28;20024;-75
2022/08/21 03:27:08;;;;;;;6.10;1.98;;;20.80;99.90;;;;;;5120164;28;20567;-75
2022/08/21 03:29:34;;;;;;;4.38;1.80;;;20.90;99.90;;;;;;5117804;28;20475;-75
2022/08/21 03:32:00;;;;;;;2.75;1.65;;;20.80;99.90;;;;;;5114514;28;20028;-75
2022/08/21 03:34:26;;;;;;;11.57;1.73;;;20.90;99.90;;;;;;5111813;28;20019;-75
2022/08/21 03:36:52;;;;;;;2.15;1.60;;;20.90;99.90;;;;;;5120073;28;20099;-75
2022/08/21 03:39:18;;;;;;;1.85;1.48;;;20.90;99.90;;;;;;5118263;28;20022;-75
2022/08/21 03:41:44;;;;;;;2.47;1.75;;;20.90;99.90;;;;;;5118794;28;20031;-76
2022/08/21 03:44:10;;;;;;;1.95;1.40;;;20.90;99.90;;;;;;5118417;28;20394;-75
2022/08/21 03:46:35;;;;;;;2.78;1.98;;;20.90;99.90;;;;;;5118594;28;20048;-76
2022/08/21 03:49:01;;;;;;;9.70;1.90;;;20.90;99.90;;;;;;5119935;28;20057;-75
2022/08/21 03:51:27;;;;;;;1.98;1.50;;;20.90;99.90;;;;;;5116254;28;20399;-75
2022/08/21 03:53:54;;;;;;;3.38;1.60;;;21.00;99.90;;;;;;5119891;28;20542;-75
2022/08/21 03:56:20;;;;;;;4.13;1.50;;;21.00;99.90;;;;;;5107095;28;20391;-75
2022/08/21 03:58:46;;;;;;;2.88;1.70;;;21.00;99.90;;;;;;5115855;28;20084;-75
2022/08/21 04:01:12;;;;;;;1.85;1.30;;;21.00;99.90;;;;;;5118198;28;20023;-74
2022/08/21 04:03:38;;;;;;;1.67;1.45;;;21.00;99.90;;;;;;5113317;28;20459;-75
2022/08/21 04:06:05;;;;;;;2.30;1.80;;;21.00;99.90;;;;;;5118145;28;20030;-75
2022/08/21 04:08:30;;;;;;;4.18;1.75;;;21.00;99.90;;;;;;5111154;28;20023;-75
2022/08/21 04:10:58;;;;;;;1.90;1.50;;;21.00;99.90;;;;;;5119502;28;20150;-75
2022/08/21 04:13:26;;;;;;;3.88;1.52;;;21.00;99.90;;;;;;5118312;28;20472;-75
2022/08/21 04:15:52;;;;;;;2.47;1.42;;;21.00;99.90;;;;;;5118392;28;20023;-76
2022/08/21 04:18:18;;;;;;;2.42;1.33;;;20.90;99.90;;;;;;5106977;28;20030;-75
2022/08/21 04:20:46;;;;;;;5.68;1.80;;;20.90;99.90;;;;;;5117225;28;20054;-75
2022/08/21 04:23:12;;;;;;;9.45;1.98;;;20.90;99.90;;;;;;5118023;28;20019;-75
2022/08/21 04:25:38;;;;;;;1.88;1.45;;;20.90;99.90;;;;;;5112915;28;20050;-75
2022/08/21 04:28:04;;;;;;;2.42;1.60;;;20.90;99.90;;;;;;5118081;28;20100;-75
2022/08/21 04:30:30;;;;;;;2.45;1.60;;;20.80;99.90;;;;;;5119270;28;20019;-75
2022/08/21 04:32:57;;;;;;;3.15;2.15;;;20.80;99.90;;;;;;5118873;28;20692;-75
2022/08/21 04:35:24;;;;;;;2.50;1.60;;;20.70;99.90;;;;;;5117734;28;20039;-75
2022/08/21 04:37:50;;;;;;;2.38;1.58;;;20.60;99.90;;;;;;5112426;28;20037;-75
2022/08/21 04:40:19;;;;;;;1.90;1.50;;;20.50;99.90;;;;;;5119095;28;20407;-75
2022/08/21 04:43:01;;;;;;;4.00;1.70;;;20.40;99.90;;;;;;5119063;28;20148;-75
2022/08/21 04:45:33;;;;;;;5.00;1.67;;;20.40;99.90;;;;;;5118732;28;20023;-75
2022/08/21 04:48:01;;;;;;;1.83;1.48;;;20.30;99.90;;;;;;5107696;28;20051;-75
2022/08/21 04:50:38;;;;;;;4.53;1.70;;;20.30;99.90;;;;;;5118503;28;20012;-75
2022/08/21 04:53:11;;;;;;;2.47;1.50;;;20.20;99.90;;;;;;5118792;28;20380;-75
2022/08/21 04:55:38;;;;;;;1.90;1.40;;;20.20;99.90;;;;;;5118485;28;20015;-75
2022/08/21 04:58:07;;;;;;;2.03;1.50;;;20.30;99.90;;;;;;5118684;28;20783;-75
2022/08/21 05:00:33;;;;;;;2.03;1.27;;;20.30;99.90;;;;;;5116613;28;20020;-75
2022/08/21 05:03:01;;;;;;;2.30;1.55;;;20.30;99.90;;;;;;5117976;28;20361;-75
2022/08/21 05:05:28;;;;;;;4.03;1.52;;;20.30;99.90;;;;;;5118416;28;20031;-75
2022/08/21 05:07:56;;;;;;;5.53;1.77;;;20.30;99.90;;;;;;5117028;28;20403;-75
2022/08/21 05:10:22;;;;;;;2.30;1.40;;;20.30;99.90;;;;;;5117007;28;20391;-75
2022/08/21 05:12:49;;;;;;;2.38;1.55;;;20.30;99.90;;;;;;5118416;28;20080;-75
2022/08/21 05:15:16;;;;;;;4.90;1.75;;;20.40;99.90;;;;;;5117165;28;20426;-75
2022/08/21 05:17:42;;;;;;;2.80;1.83;;;20.30;99.90;;;;;;5116686;28;20027;-75
2022/08/21 05:20:13;;;;;;;5.25;2.38;;;20.40;99.90;;;;;;5107228;28;20059;-75
2022/08/21 05:22:39;;;;;;;2.63;1.88;;;20.40;99.90;;;;;;5116871;28;20020;-75
2022/08/21 05:25:07;;;;;;;5.18;1.58;;;20.30;99.90;;;;;;5116590;28;20364;-74
2022/08/21 05:27:32;;;;;;;2.65;1.70;;;20.40;99.90;;;;;;5077361;28;20115;-74
2022/08/21 05:29:58;;;;;;;4.00;1.60;;;20.40;99.90;;;;;;5077061;28;20088;-74
2022/08/21 05:32:25;;;;;;;1.95;1.55;;;20.40;99.90;;;;;;5070221;28;20038;-77
2022/08/21 05:34:51;;;;;;;2.00;1.33;;;20.30;99.90;;;;;;5074853;28;20028;-76
2022/08/21 05:37:17;;;;;;;1.92;1.50;;;20.30;99.90;;;;;;5075227;28;20550;-77
2022/08/21 05:39:42;;;;;;;9.07;1.88;;;20.40;99.90;;;;;;5072516;28;20830;-77
2022/08/21 05:42:08;;;;;;;2.05;1.65;;;20.40;99.90;;;;;;5060616;28;20044;-76
2022/08/21 05:44:34;;;;;;;2.85;1.80;;;20.40;99.90;;;;;;5057319;28;20103;-76
2022/08/21 05:47:09;;;;;;;3.55;1.65;;;20.40;99.90;;;;;;5066440;28;20095;-76
2022/08/21 05:49:36;;;;;;;4.07;1.38;;;20.40;99.90;;;;;;5060854;28;20021;-76
2022/08/21 05:52:03;;;;;;;4.50;1.75;;;20.50;99.90;;;;;;5054944;28;20473;-77
2022/08/21 05:54:29;;;;;;;3.15;1.40;;;20.60;99.90;;;;;;5063534;28;20493;-77
2022/08/21 05:56:55;;;;;;;2.90;1.95;;;20.60;99.90;;;;;;5056133;28;20102;-77
2022/08/21 05:59:21;;;;;;;2.50;1.60;;;20.70;99.90;;;;;;5060046;28;20028;-79
2022/08/21 06:01:47;;;;;;;2.20;1.45;;;20.80;99.90;;;;;;5058305;28;20028;-76
2022/08/21 06:04:13;;;;;;;5.03;1.70;;;20.80;99.90;;;;;;5056271;28;20057;-78
2022/08/21 06:06:39;;;;;;;4.63;1.77;;;20.90;99.90;;;;;;5055412;28;20029;-77
2022/08/21 06:09:06;;;;;;;3.42;1.50;;;20.90;99.90;;;;;;5058103;28;20155;-77
2022/08/21 06:11:32;;;;;;;5.50;1.70;;;21.00;99.90;;;;;;5069260;28;20070;-77
2022/08/21 06:13:58;;;;;;;2.75;1.45;;;21.10;99.90;;;;;;5076736;28;20025;-74
2022/08/21 06:16:26;;;;;;;3.45;1.63;;;21.20;99.90;;;;;;5074437;28;20028;-77
2022/08/21 06:18:52;;;;;;;2.22;1.70;;;21.20;99.90;;;;;;5075029;28;20036;-78
2022/08/21 06:21:18;;;;;;;5.45;2.00;;;21.30;99.90;;;;;;5077024;28;20024;-78
2022/08/21 06:23:44;;;;;;;2.65;1.40;;;21.40;99.90;;;;;;5075468;28;20028;-76
2022/08/21 06:26:12;;;;;;;2.05;1.30;;;21.50;99.90;;;;;;5093516;28;20040;-77
2022/08/21 06:28:38;;;;;;;4.30;1.48;;;21.60;99.90;;;;;;5117184;28;20027;-77
2022/08/21 06:31:23;;;;;;;2.17;1.40;;;21.60;99.90;;;;;;5117161;28;20007;-78
2022/08/21 06:33:50;;;;;;;3.45;1.50;;;21.70;99.90;;;;;;5110146;28;20035;-77
2022/08/21 06:36:17;;;;;;;1.83;1.58;;;21.70;99.90;;;;;;5117613;28;20098;-77
2022/08/21 06:38:43;;;;;;;1.90;1.30;;;21.70;99.90;;;;;;5112368;28;20392;-77
2022/08/21 06:41:09;;;;;;;2.17;1.52;;;21.70;99.90;;;;;;5115907;28;20024;-77
2022/08/21 06:43:35;;;;;;;2.05;1.35;;;21.80;99.90;;;;;;5119654;28;20015;-76
2022/08/21 06:46:00;;;;;;;1.88;1.40;;;21.80;99.90;;;;;;5120909;28;20045;-77
2022/08/21 06:48:26;;;;;;;1.75;1.42;;;21.80;99.90;;;;;;5118623;28;20018;-77
2022/08/21 06:50:53;;;;;;;5.32;1.52;;;21.80;99.90;;;;;;5121096;28;20032;-77
2022/08/21 06:53:20;;;;;;;1.88;1.48;;;22.00;99.90;;;;;;5119641;28;20034;-76
2022/08/21 06:55:48;;;;;;;1.90;1.13;;;22.00;99.90;;;;;;5119570;28;20119;-76
2022/08/21 06:58:14;;;;;;;2.72;1.58;;;22.20;99.90;;;;;;5114410;28;20429;-76
2022/08/21 07:00:43;;;;;;;4.18;1.50;;;22.30;99.90;;;;;;5111115;28;20545;-77
2022/08/21 07:03:27;;;;;;;4.35;1.40;;;22.30;99.90;;;;;;5120481;28;20015;-76
2022/08/21 07:05:54;;;;;;;3.25;1.48;;;22.40;99.90;;;;;;5120259;28;20476;-78
2022/08/21 07:08:21;;;;;;;2.05;1.50;;;22.40;99.90;;;;;;5119367;28;20024;-77
2022/08/21 07:10:48;;;;;;;2.17;1.60;;;22.40;99.90;;;;;;5120661;28;20019;-76
2022/08/21 07:13:14;;;;;;;2.55;1.67;;;22.40;99.90;;;;;;5119504;28;20387;-77
2022/08/21 07:15:40;;;;;;;1.48;1.20;;;22.50;99.90;;;;;;5119112;28;20047;-76
2022/08/21 07:18:06;;;;;;;4.78;1.63;;;22.60;99.90;;;;;;5120389;27;20357;-77
2022/08/21 07:20:32;;;;;;;1.70;1.30;;;22.70;99.90;;;;;;5119038;28;20083;-76
2022/08/21 07:23:01;;;;;;;2.22;1.40;;;22.80;99.90;;;;;;5111546;28;20028;-77
2022/08/21 07:25:27;;;;;;;2.17;1.45;;;22.90;99.90;;;;;;5113651;28;20058;-77
2022/08/21 07:27:53;;;;;;;1.40;1.13;;;23.00;99.90;;;;;;5113212;28;20388;-76
2022/08/21 07:30:19;;;;;;;4.40;1.50;;;23.10;99.90;;;;;;5120306;28;20028;-77
2022/08/21 07:32:45;;;;;;;2.42;1.38;;;23.10;99.90;;;;;;5119903;28;20023;-76
2022/08/21 07:35:11;;;;;;;2.03;1.35;;;23.20;99.90;;;;;;5120213;28;20502;-77
2022/08/21 07:37:37;;;;;;;2.33;1.40;;;23.30;99.90;;;;;;5118766;28;20015;-76
2022/08/21 07:40:03;;;;;;;2.17;1.20;;;23.40;99.90;;;;;;5120068;28;20024;-78
2022/08/21 07:42:29;;;;;;;2.58;1.52;;;23.40;99.90;;;;;;5118673;28;20027;-78
2022/08/21 07:44:55;;;;;;;2.13;1.50;;;23.40;99.90;;;;;;5086226;28;20050;-76
2022/08/21 07:47:21;;;;;;;2.40;1.40;;;23.50;99.90;;;;;;5110777;28;20081;-78
2022/08/21 07:49:47;;;;;;;3.90;1.50;;;23.40;99.90;;;;;;5117102;28;20043;-77
2022/08/21 07:52:13;;;;;;;1.67;1.17;;;23.40;99.90;;;;;;5113650;27;20531;-77
2022/08/21 07:54:39;;;;;;;4.22;1.50;;;23.40;99.90;;;;;;5119244;28;20050;-77
2022/08/21 07:57:04;;;;;;;2.95;1.52;;;23.50;99.90;;;;;;5118482;28;20043;-78
2022/08/21 07:59:30;;;;;;;3.22;1.38;;;23.60;99.90;;;;;;5119831;27;20098;-77
2022/08/21 08:01:56;;;;;;;4.90;1.23;;;23.60;99.90;;;;;;5119645;28;20024;-79
2022/08/21 08:04:22;;;;;;;2.05;1.55;;;23.60;99.90;;;;;;5112578;28;20020;-77
2022/08/21 08:06:48;;;;;;;4.78;1.50;;;23.70;99.90;;;;;;5112806;28;20487;-76
2022/08/21 08:09:15;;;;;;;5.80;1.08;;;23.80;99.90;;;;;;5119648;28;20079;-75
2022/08/21 08:11:45;;;;;;;5.45;1.55;;;24.00;99.90;;;;;;5115667;28;20421;-77
2022/08/21 08:14:11;;;;;;;3.20;1.20;;;23.90;99.90;;;;;;5114228;28;20035;-78
2022/08/21 08:16:37;;;;;;;3.15;1.17;;;24.00;99.90;;;;;;5116813;28;20437;-78
2022/08/21 08:19:03;;;;;;;3.97;1.50;;;24.20;99.90;;;;;;5117788;28;20027;-76
2022/08/21 08:21:29;;;;;;;2.20;1.20;;;24.20;99.90;;;;;;5118249;28;20051;-80
2022/08/21 08:23:56;;;;;;;2.42;1.23;;;24.30;99.90;;;;;;5110541;28;20031;-79
2022/08/21 08:26:21;;;;;;;1.73;1.08;;;24.30;99.90;;;;;;5118220;28;20542;-76
2022/08/21 08:28:47;;;;;;;6.55;1.98;;;24.30;99.90;;;;;;5119304;28;20023;-77
2022/08/21 08:31:13;;;;;;;2.22;1.65;;;24.20;99.90;;;;;;5118919;28;20015;-76
2022/08/21 08:33:39;;;;;;;5.85;1.50;;;24.10;99.90;;;;;;5117571;28;20036;-77
2022/08/21 08:36:11;;;;;;;2.03;1.40;;;24.10;99.90;;;;;;5118427;28;20020;-77
2022/08/21 08:38:37;;;;;;;3.67;1.30;;;24.10;99.90;;;;;;5118280;27;20058;-78
2022/08/21 08:41:19;;;;;;;1.77;1.23;;;24.20;99.90;;;;;;5116900;28;20016;-76
2022/08/21 08:43:56;;;;;;;2.35;1.40;;;24.30;99.90;;;;;;5118869;27;20043;-75
2022/08/21 08:46:46;;;;;;;1.98;1.38;;;24.50;99.90;;;;;;5116393;28;20093;-77
2022/08/21 08:49:30;;;;;;;;;;;24.60;99.90;;;;;;5106118;28;20031;-77
2022/08/21 08:52:05;;;;;;;3.20;1.33;;;24.60;99.90;;;;;;5118811;28;19957;-75
2022/08/21 08:54:42;;;;;;;2.10;1.48;;;24.90;99.90;;;;;;5117306;28;20019;-75
2022/08/21 08:57:20;;;;;;;2.95;1.20;;;25.00;99.90;;;;;;5116492;28;20030;-76
2022/08/21 08:59:49;;;;;;;1.42;0.98;;;25.00;99.90;;;;;;5102805;28;20114;-76
2022/08/21 09:02:16;;;;;;;2.33;1.10;;;25.20;99.90;;;;;;5112059;28;20388;-75
2022/08/21 09:04:45;;;;;;;1.52;1.10;;;25.30;99.90;;;;;;5117058;28;20364;-77
2022/08/21 09:07:31;;;;;;;1.60;0.90;;;25.50;99.90;;;;;;5117955;28;20080;-75
2022/08/21 09:10:07;;;;;;;3.15;1.35;;;25.50;99.90;;;;;;5118621;28;20025;-75
2022/08/21 09:12:51;;;;;;;1.92;1.55;;;25.70;99.90;;;;;;5112560;28;20024;-76
2022/08/21 09:15:51;;;;;;;1.80;1.23;;;25.80;99.90;;;;;;5113692;28;20065;-76
2022/08/21 09:18:27;;;;;;;2.33;1.10;;;25.70;99.90;;;;;;5085874;28;20069;-77
2022/08/21 09:21:16;;;;;;;1.80;1.13;;;25.80;99.90;;;;;;5117927;28;20051;-75
2022/08/21 09:24:02;;;;;;;2.50;1.17;;;25.90;99.90;;;;;;5118187;28;20019;-74
2022/08/21 09:26:45;;;;;;;3.47;1.15;;;26.00;99.90;;;;;;5116440;28;20047;-76
2022/08/21 09:29:12;;;;;;;1.45;0.93;;;25.80;99.90;;;;;;5118254;28;20020;-76
2022/08/21 09:31:37;;;;;;;4.97;1.60;;;25.80;99.90;;;;;;5115798;28;20020;-75
2022/08/21 09:34:09;;;;;;;1.88;0.90;;;25.60;99.90;;;;;;5117846;28;20030;-76
2022/08/21 09:36:40;;;;;;;1.48;0.95;;;25.70;99.90;;;;;;5115924;28;20046;-76
2022/08/21 09:39:07;;;;;;;1.42;0.95;;;25.80;99.90;;;;;;5117877;28;20043;-75
2022/08/21 09:41:35;;;;;;;1.88;1.42;;;25.80;99.90;;;;;;5117764;28;20019;-75
2022/08/21 09:44:05;;;;;;;1.70;0.90;;;25.80;99.90;;;;;;5108797;28;20046;-76
2022/08/21 09:46:32;;;;;;;;;;;25.80;99.90;;;;;;5117332;28;20020;-76
2022/08/21 09:49:03;;;;;;;1.88;1.23;;;26.00;99.90;;;;;;5116367;28;19941;-75
2022/08/21 09:51:33;;;;;;;3.08;1.10;;;26.00;99.90;;;;;;5114969;28;20387;-78
2022/08/21 09:54:08;;;;;;;2.30;1.05;;;26.10;99.90;;;;;;5114103;28;20016;-76
2022/08/21 09:59:33;;;;;;;3.88;0.95;;;26.10;99.90;;;;;;5116593;28;20117;-76
2022/08/21 10:02:01;;;;;;;1.17;0.88;;;26.20;99.90;;;;;;5116139;28;20019;-76
2022/08/21 10:04:31;;;;;;;0.95;0.75;;;26.20;99.90;;;;;;5116389;28;20454;-77
2022/08/21 10:07:08;;;;;;;2.08;0.73;;;26.20;99.90;;;;;;5103795;28;20061;-76
2022/08/21 10:09:33;;;;;;;2.13;0.90;;;26.20;99.90;;;;;;5112723;28;20024;-77
2022/08/21 10:12:15;;;;;;;1.10;0.80;;;26.10;99.90;;;;;;5115196;28;20026;-75
2022/08/21 10:14:56;;;;;;;1.15;0.85;;;26.20;99.90;;;;;;5112200;28;20035;-77
2022/08/21 10:17:51;;;;;;;1.90;0.95;;;26.30;99.90;;;;;;5112944;28;20028;-75
2022/08/21 10:20:25;;;;;;;1.65;1.10;;;26.30;99.90;;;;;;5062900;28;20034;-75
2022/08/21 10:23:18;;;;;;;1.00;0.80;;;26.50;99.90;;;;;;5113198;28;20024;-74
2022/08/21 10:25:52;;;;;;;1.30;0.90;;;26.70;99.30;;;;;;5114799;28;20043;-76
2022/08/21 10:28:30;;;;;;;2.60;0.60;;;26.90;98.50;;;;;;5121286;28;20066;-75
2022/08/21 10:31:15;;;;;;;1.25;0.68;;;26.90;97.80;;;;;;5113209;28;20016;-75
2022/08/21 10:33:52;;;;;;;0.90;0.70;;;27.00;97.70;;;;;;5106628;28;20575;-75
2022/08/21 10:36:21;;;;;;;1.30;0.70;;;27.20;97.20;;;;;;5114753;28;20027;-77
2022/08/21 10:39:48;;;;;;;1.88;0.73;;;27.20;96.40;;;;;;5121355;28;20445;-75
2022/08/21 10:42:51;;;;;;;2.50;0.88;;;27.30;96.10;;;;;;5111959;28;20055;-75
2022/08/21 10:45:53;;;;;;;1.25;0.90;;;27.30;96.00;;;;;;5121079;27;20031;-76
2022/08/21 10:48:35;;;;;;;1.63;0.80;;;27.20;96.40;;;;;;5110608;28;20618;-76
2022/08/21 10:51:16;;;;;;;1.95;0.80;;;27.20;96.90;;;;;;5109308;28;20075;-74
2022/08/21 10:53:46;;;;;;;0.98;0.75;;;27.10;97.30;;;;;;5112703;28;20028;-75
2022/08/21 10:56:21;;;;;;;0.85;0.63;;;27.20;97.40;;;;;;5112591;28;20102;-75
2022/08/21 10:59:04;;;;;;;1.80;0.70;;;27.50;96.70;;;;;;5114526;28;20395;-75
2022/08/21 11:01:43;;;;;;;2.25;0.80;;;27.70;96.40;;;;;;5120428;28;20514;-75
2022/08/21 11:04:25;;;;;;;3.38;0.80;;;27.80;95.40;;;;;;5120697;28;20038;-75
2022/08/21 11:06:58;;;;;;;1.27;0.73;;;28.10;95.10;;;;;;5119522;28;20102;-75
2022/08/21 11:09:26;;;;;;;1.67;0.80;;;28.30;94.00;;;;;;5120935;28;20011;-75
2022/08/21 11:12:20;;;;;;;5.05;0.90;;;28.30;93.70;;;;;;5120945;28;20020;-77
2022/08/21 11:15:00;;;;;;;1.48;0.57;;;28.20;93.70;;;;;;5115551;28;20120;-76
2022/08/21 11:17:40;;;;;;;2.63;0.93;;;28.00;94.30;;;;;;5116528;28;20027;-76
2022/08/21 11:20:13;;;;;;;1.05;0.70;;;28.20;93.80;;;;;;5120611;28;20046;-75
2022/08/21 11:22:48;;;;;;;2.22;0.82;;;28.40;93.50;;;;;;5119167;28;20110;-76
2022/08/21 11:25:29;;;;;;;0.65;0.57;;;28.30;93.30;;;;;;5114184;28;20027;-77
2022/08/21 11:28:06;;;;;;;1.08;0.77;;;28.60;92.50;;;;;;5120092;28;20034;-76
2022/08/21 11:31:14;;;;;;;1.27;0.68;;;28.50;91.90;;;;;;5119038;28;20020;-75
2022/08/21 11:34:04;;;;;;;0.80;0.60;;;29.00;92.60;;;;;;5104747;27;20079;-76
2022/08/21 11:36:48;;;;;;;0.70;0.50;;;29.40;90.60;;;;;;5117731;28;20016;-75
2022/08/21 11:39:22;;;;;;;1.08;0.70;;;29.30;90.00;;;;;;5120429;28;20034;-75
2022/08/21 11:42:23;;;;;;;2.00;0.90;;;29.30;91.10;;;;;;5120424;28;20020;-77
2022/08/21 11:45:05;;;;;;;1.02;0.68;;;29.10;90.50;;;;;;5114564;28;20039;-77
2022/08/21 11:47:53;;;;;;;1.55;0.80;;;28.90;90.90;;;;;;5111723;28;20022;-76
2022/08/21 11:50:27;;;;;;;1.40;0.63;;;28.80;91.30;;;;;;5119132;28;20031;-76
2022/08/21 11:53:04;;;;;;;1.58;0.70;;;29.00;91.70;;;;;;5118641;28;20045;-76
2022/08/21 11:55:36;;;;;;;1.15;0.73;;;29.50;91.60;;;;;;5111438;27;20020;-76
2022/08/21 11:58:12;;;;;;;1.23;0.80;;;29.80;88.90;;;;;;5119890;28;20023;-77
2022/08/21 12:00:53;;;;;;;4.47;0.70;;;30.00;87.30;;;;;;5111600;28;20023;-75
2022/08/21 12:03:32;;;;;;;1.38;0.73;;;30.10;87.00;;;;;;5116647;28;20027;-76
2022/08/21 12:06:10;;;;;;;1.73;0.70;;;30.30;87.20;;;;;;5119222;28;20103;-75
2022/08/21 12:08:40;;;;;;;2.17;0.85;;;30.20;86.80;;;;;;5119558;28;20016;-75
2022/08/21 12:11:18;;;;;;;0.90;0.70;;;30.20;86.90;;;;;;5118805;28;20015;-76
2022/08/21 12:14:04;;;;;;;1.95;1.05;;;30.00;86.40;;;;;;5118182;28;20096;-78
2022/08/21 12:16:45;;;;;;;1.23;0.65;;;29.80;85.60;;;;;;5119364;28;20042;-75
2022/08/21 12:19:14;;;;;;;2.40;0.70;;;29.60;87.10;;;;;;5102637;28;20400;-76
2022/08/21 12:22:01;;;;;;;1.05;0.80;;;29.70;86.30;;;;;;5109898;28;20106;-74
2022/08/21 12:24:26;;;;;;;1.30;0.80;;;29.80;88.80;;;;;;5118761;28;20026;-75
2022/08/21 12:26:54;;;;;;;3.72;0.60;;;30.00;85.20;;;;;;5118871;28;20075;-76
2022/08/21 12:29:30;;;;;;;1.42;0.73;;;29.80;85.10;;;;;;5109245;28;20110;-75
2022/08/21 12:32:18;;;;;;;0.75;0.60;;;29.40;85.30;;;;;;5119042;28;20884;-75
2022/08/21 12:34:52;;;;;;;0.70;0.52;;;29.20;85.80;;;;;;5115425;28;20079;-75
2022/08/21 12:37:41;;;;;;;1.77;0.75;;;29.10;86.90;;;;;;5117630;28;20376;-76
2022/08/21 12:40:16;;;;;;;1.65;0.70;;;29.00;86.60;;;;;;5117238;28;20020;-76
2022/08/21 12:42:49;;;;;;;3.00;0.77;;;28.90;87.10;;;;;;5118948;28;20447;-76
2022/08/21 12:45:37;;;;;;;1.40;0.93;;;29.10;88.00;;;;;;5118035;28;20368;-75
2022/08/21 12:48:19;;;;;;;3.17;0.90;;;29.20;87.80;;;;;;5117713;28;20081;-76
2022/08/21 12:50:53;;;;;;;0.88;0.60;;;29.10;87.10;;;;;;5115581;28;20011;-76
2022/08/21 12:53:51;;;;;;;1.65;0.82;;;28.90;87.30;;;;;;5117329;28;20023;-77
2022/08/21 12:56:20;;;;;;;3.63;0.82;;;28.70;87.30;;;;;;5115483;28;20074;-76
2022/08/21 12:58:48;;;;;;;2.97;0.90;;;28.60;87.60;;;;;;5117591;28;20435;-75
2022/08/21 13:01:33;;;;;;;1.27;0.70;;;28.70;88.20;;;;;;5116909;28;20451;-76
2022/08/21 13:04:03;;;;;;;0.90;0.70;;;28.60;87.20;;;;;;5101622;28;20016;-75
2022/08/21 13:06:36;;;;;;;2.53;0.95;;;28.60;88.00;;;;;;5113874;28;20020;-75
2022/08/21 13:09:08;;;;;;;1.27;0.82;;;28.60;87.50;;;;;;5113173;28;20040;-75
2022/08/21 13:11:35;;;;;;;1.60;0.95;;;28.60;88.40;;;;;;5107236;28;20015;-75